sensor_id;sensor_type;location;lat;lon;timestamp;temperature;humidity
51996;DHT22;38010;53.264;6.592;2023-03-11T00:01:36;11.60;99.70
51996;DHT22;38010;53.264;6.592;2023-03-11T00:04:04;11.60;99.90
51996;DHT22;38010;53.264;6.592;2023-03-11T00:06:30;11.60;99.70
51996;DHT22;38010;53.264;6.592;2023-03-11T00:08:56;11.60;99.70
51996;DHT22;38010;53.264;6.592;2023-03-11T00:11:21;11.60;99.70
51996;DHT22;38010;53.264;6.592;2023-03-11T00:13:47;11.60;99.70
51996;DHT22;38010;53.264;6.592;2023-03-11T00:16:13;11.60;99.70
51996;DHT22;38010;53.264;6.592;2023-03-11T00:18:38;11.60;99.70
51996;DHT22;38010;53.264;6.592;2023-03-11T00:21:04;11.60;99.70
51996;DHT22;38010;53.264;6.592;2023-03-11T00:23:30;11.50;99.60
51996;DHT22;38010;53.264;6.592;2023-03-11T00:25:57;11.50;99.60
51996;DHT22;38010;53.264;6.592;2023-03-11T00:28:24;11.60;99.70
51996;DHT22;38010;53.264;6.592;2023-03-11T00:30:51;11.50;99.60
51996;DHT22;38010;53.264;6.592;2023-03-11T00:33:16;11.50;99.60
51996;DHT22;38010;53.264;6.592;2023-03-11T00:35:43;11.50;99.60
51996;DHT22;38010;53.264;6.592;2023-03-11T00:38:13;11.50;99.60
51996;DHT22;38010;53.264;6.592;2023-03-11T00:40:39;11.50;99.60
51996;DHT22;38010;53.264;6.592;2023-03-11T00:43:05;11.50;99.60
51996;DHT22;38010;53.264;6.592;2023-03-11T00:45:31;11.50;99.60
51996;DHT22;38010;53.264;6.592;2023-03-11T00:47:57;11.50;99.60
51996;DHT22;38010;53.264;6.592;2023-03-11T00:50:25;11.50;99.60
51996;DHT22;38010;53.264;6.592;2023-03-11T00:52:52;11.50;99.60
51996;DHT22;38010;53.264;6.592;2023-03-11T00:55:24;11.50;99.60
51996;DHT22;38010;53.264;6.592;2023-03-11T00:57:54;11.50;99.60
51996;DHT22;38010;53.264;6.592;2023-03-11T01:00:21;11.50;99.60
51996;DHT22;38010;53.264;6.592;2023-03-11T01:02:47;11.50;99.60
51996;DHT22;38010;53.264;6.592;2023-03-11T01:05:14;11.40;99.60
51996;DHT22;38010;53.264;6.592;2023-03-11T01:07:40;11.50;99.60
51996;DHT22;38010;53.264;6.592;2023-03-11T01:10:08;11.50;99.60
51996;DHT22;38010;53.264;6.592;2023-03-11T01:12:34;11.40;99.60
51996;DHT22;38010;53.264;6.592;2023-03-11T01:14:59;11.40;99.60
51996;DHT22;38010;53.264;6.592;2023-03-11T01:17:25;11.40;99.60
51996;DHT22;38010;53.264;6.592;2023-03-11T01:19:51;11.40;99.60
51996;DHT22;38010;53.264;6.592;2023-03-11T01:22:17;11.40;99.60
51996;DHT22;38010;53.264;6.592;2023-03-11T01:24:43;11.40;99.60
51996;DHT22;38010;53.264;6.592;2023-03-11T01:27:09;11.40;99.60
51996;DHT22;38010;53.264;6.592;2023-03-11T01:29:34;11.40;99.60
51996;DHT22;38010;53.264;6.592;2023-03-11T01:32:00;11.40;99.60
51996;DHT22;38010;53.264;6.592;2023-03-11T01:34:26;11.40;99.60
51996;DHT22;38010;53.264;6.592;2023-03-11T01:36:51;11.40;99.60
51996;DHT22;38010;53.264;6.592;2023-03-11T01:39:17;11.40;99.60
51996;DHT22;38010;53.264;6.592;2023-03-11T01:41:43;11.40;99.60
51996;DHT22;38010;53.264;6.592;2023-03-11T01:44:12;11.30;99.50
51996;DHT22;38010;53.264;6.592;2023-03-11T01:49:20;11.30;99.50
51996;DHT22;38010;53.264;6.592;2023-03-11T01:51:51;11.30;99.50
51996;DHT22;38010;53.264;6.592;2023-03-11T01:54:25;11.30;99.50
51996;DHT22;38010;53.264;6.592;2023-03-11T01:56:52;11.30;99.50
51996;DHT22;38010;53.264;6.592;2023-03-11T01:59:22;11.30;99.50
51996;DHT22;38010;53.264;6.592;2023-03-11T02:01:54;11.30;99.50
51996;DHT22;38010;53.264;6.592;2023-03-11T02:04:24;11.30;99.50
51996;DHT22;38010;53.264;6.592;2023-03-11T02:06:51;11.30;99.50
51996;DHT22;38010;53.264;6.592;2023-03-11T02:09:17;11.30;99.50
51996;DHT22;38010;53.264;6.592;2023-03-11T02:11:42;11.30;99.50
51996;DHT22;38010;53.264;6.592;2023-03-11T02:14:08;11.30;99.50
51996;DHT22;38010;53.264;6.592;2023-03-11T02:16:34;11.30;99.50
51996;DHT22;38010;53.264;6.592;2023-03-11T02:19:14;11.30;99.50
51996;DHT22;38010;53.264;6.592;2023-03-11T02:21:41;11.30;99.50
51996;DHT22;38010;53.264;6.592;2023-03-11T02:29:19;11.30;99.50
51996;DHT22;38010;53.264;6.592;2023-03-11T02:31:47;11.30;99.50
51996;DHT22;38010;53.264;6.592;2023-03-11T02:34:33;11.20;99.50
51996;DHT22;38010;53.264;6.592;2023-03-11T02:36:59;11.20;99.50
51996;DHT22;38010;53.264;6.592;2023-03-11T02:41:58;11.20;99.50
51996;DHT22;38010;53.264;6.592;2023-03-11T02:44:24;11.20;99.50
51996;DHT22;38010;53.264;6.592;2023-03-11T02:46:51;11.20;99.50
51996;DHT22;38010;53.264;6.592;2023-03-11T02:49:18;11.20;99.50
51996;DHT22;38010;53.264;6.592;2023-03-11T02:51:44;11.20;99.50
51996;DHT22;38010;53.264;6.592;2023-03-11T02:54:10;11.20;99.80
51996;DHT22;38010;53.264;6.592;2023-03-11T02:56:36;11.20;99.50
51996;DHT22;38010;53.264;6.592;2023-03-11T02:59:01;11.20;99.50
51996;DHT22;38010;53.264;6.592;2023-03-11T03:01:27;11.20;99.50
51996;DHT22;38010;53.264;6.592;2023-03-11T03:03:53;11.20;99.60
51996;DHT22;38010;53.264;6.592;2023-03-11T03:06:18;11.20;99.60
51996;DHT22;38010;53.264;6.592;2023-03-11T03:08:44;11.20;99.60
51996;DHT22;38010;53.264;6.592;2023-03-11T03:11:10;11.20;99.60
51996;DHT22;38010;53.264;6.592;2023-03-11T03:13:35;11.10;99.60
51996;DHT22;38010;53.264;6.592;2023-03-11T03:16:01;11.10;99.60
51996;DHT22;38010;53.264;6.592;2023-03-11T03:18:27;11.20;99.60
51996;DHT22;38010;53.264;6.592;2023-03-11T03:20:53;11.10;99.60
51996;DHT22;38010;53.264;6.592;2023-03-11T03:23:19;11.20;99.60
51996;DHT22;38010;53.264;6.592;2023-03-11T03:25:45;11.20;99.60
51996;DHT22;38010;53.264;6.592;2023-03-11T03:28:11;11.10;99.60
51996;DHT22;38010;53.264;6.592;2023-03-11T03:30:37;11.10;99.60
51996;DHT22;38010;53.264;6.592;2023-03-11T03:33:04;11.10;99.60
51996;DHT22;38010;53.264;6.592;2023-03-11T03:35:30;11.10;99.60
51996;DHT22;38010;53.264;6.592;2023-03-11T03:37:56;11.10;99.60
51996;DHT22;38010;53.264;6.592;2023-03-11T03:40:22;11.10;99.60
51996;DHT22;38010;53.264;6.592;2023-03-11T03:42:47;11.10;99.60
51996;DHT22;38010;53.264;6.592;2023-03-11T03:45:13;11.10;99.60
51996;DHT22;38010;53.264;6.592;2023-03-11T03:47:39;11.10;99.60
51996;DHT22;38010;53.264;6.592;2023-03-11T03:50:07;11.10;99.60
51996;DHT22;38010;53.264;6.592;2023-03-11T03:52:34;11.10;99.70
51996;DHT22;38010;53.264;6.592;2023-03-11T03:55:01;11.10;99.70
51996;DHT22;38010;53.264;6.592;2023-03-11T03:57:28;11.10;99.70
51996;DHT22;38010;53.264;6.592;2023-03-11T03:59:54;11.00;99.70
51996;DHT22;38010;53.264;6.592;2023-03-11T04:02:19;11.00;99.70
51996;DHT22;38010;53.264;6.592;2023-03-11T04:04:46;11.10;99.70
51996;DHT22;38010;53.264;6.592;2023-03-11T04:07:12;11.00;99.70
51996;DHT22;38010;53.264;6.592;2023-03-11T04:09:39;11.10;99.70
51996;DHT22;38010;53.264;6.592;2023-03-11T04:12:05;11.00;99.70
51996;DHT22;38010;53.264;6.592;2023-03-11T04:14:31;11.10;99.80
51996;DHT22;38010;53.264;6.592;2023-03-11T04:16:57;11.00;99.80
51996;DHT22;38010;53.264;6.592;2023-03-11T04:19:23;11.00;99.90
51996;DHT22;38010;53.264;6.592;2023-03-11T04:21:50;11.00;99.80
51996;DHT22;38010;53.264;6.592;2023-03-11T04:24:17;11.10;99.80
51996;DHT22;38010;53.264;6.592;2023-03-11T04:26:43;11.10;99.80
51996;DHT22;38010;53.264;6.592;2023-03-11T04:29:09;11.10;99.80
51996;DHT22;38010;53.264;6.592;2023-03-11T04:31:35;11.10;99.80
51996;DHT22;38010;53.264;6.592;2023-03-11T04:34:00;11.10;99.80
51996;DHT22;38010;53.264;6.592;2023-03-11T04:36:26;11.10;99.80
51996;DHT22;38010;53.264;6.592;2023-03-11T04:38:52;11.20;99.90
51996;DHT22;38010;53.264;6.592;2023-03-11T04:41:18;11.20;99.90
51996;DHT22;38010;53.264;6.592;2023-03-11T04:43:43;11.10;99.90
51996;DHT22;38010;53.264;6.592;2023-03-11T04:46:09;11.20;99.90
51996;DHT22;38010;53.264;6.592;2023-03-11T04:48:35;11.20;99.90
51996;DHT22;38010;53.264;6.592;2023-03-11T04:51:00;11.20;99.90
51996;DHT22;38010;53.264;6.592;2023-03-11T04:53:26;11.30;99.90
51996;DHT22;38010;53.264;6.592;2023-03-11T04:55:52;11.30;99.90
51996;DHT22;38010;53.264;6.592;2023-03-11T04:58:18;11.40;99.90
51996;DHT22;38010;53.264;6.592;2023-03-11T05:00:44;11.40;99.80
51996;DHT22;38010;53.264;6.592;2023-03-11T05:03:10;11.40;99.80
51996;DHT22;38010;53.264;6.592;2023-03-11T05:05:36;11.50;99.80
51996;DHT22;38010;53.264;6.592;2023-03-11T05:08:02;11.50;99.80
51996;DHT22;38010;53.264;6.592;2023-03-11T05:10:28;11.60;99.80
51996;DHT22;38010;53.264;6.592;2023-03-11T05:12:53;11.60;99.80
51996;DHT22;38010;53.264;6.592;2023-03-11T05:15:19;11.60;99.80
51996;DHT22;38010;53.264;6.592;2023-03-11T05:17:45;11.70;99.80
51996;DHT22;38010;53.264;6.592;2023-03-11T05:20:11;11.70;99.80
51996;DHT22;38010;53.264;6.592;2023-03-11T05:22:37;11.70;99.80
51996;DHT22;38010;53.264;6.592;2023-03-11T05:25:04;11.80;99.80
51996;DHT22;38010;53.264;6.592;2023-03-11T05:27:30;11.80;99.70
51996;DHT22;38010;53.264;6.592;2023-03-11T05:29:56;11.80;99.70
51996;DHT22;38010;53.264;6.592;2023-03-11T05:32:22;11.90;99.70
51996;DHT22;38010;53.264;6.592;2023-03-11T05:34:48;11.90;99.70
51996;DHT22;38010;53.264;6.592;2023-03-11T05:37:14;11.90;99.70
51996;DHT22;38010;53.264;6.592;2023-03-11T05:39:40;11.80;99.70
51996;DHT22;38010;53.264;6.592;2023-03-11T05:42:06;11.90;99.70
51996;DHT22;38010;53.264;6.592;2023-03-11T05:44:33;11.80;99.70
51996;DHT22;38010;53.264;6.592;2023-03-11T05:46:59;11.80;99.60
51996;DHT22;38010;53.264;6.592;2023-03-11T05:49:25;11.80;99.70
51996;DHT22;38010;53.264;6.592;2023-03-11T05:51:51;11.90;99.70
51996;DHT22;38010;53.264;6.592;2023-03-11T05:54:19;11.90;99.70
51996;DHT22;38010;53.264;6.592;2023-03-11T05:56:46;11.90;99.70
51996;DHT22;38010;53.264;6.592;2023-03-11T05:59:13;11.90;99.70
51996;DHT22;38010;53.264;6.592;2023-03-11T06:01:40;11.90;99.70
51996;DHT22;38010;53.264;6.592;2023-03-11T06:04:06;11.90;99.70
51996;DHT22;38010;53.264;6.592;2023-03-11T06:06:32;12.00;99.70
51996;DHT22;38010;53.264;6.592;2023-03-11T06:08:58;12.00;99.70
51996;DHT22;38010;53.264;6.592;2023-03-11T06:11:23;12.00;99.70
51996;DHT22;38010;53.264;6.592;2023-03-11T06:13:54;12.10;99.70
51996;DHT22;38010;53.264;6.592;2023-03-11T06:16:21;12.10;99.60
51996;DHT22;38010;53.264;6.592;2023-03-11T06:18:47;12.10;99.60
51996;DHT22;38010;53.264;6.592;2023-03-11T06:21:21;12.10;99.60
51996;DHT22;38010;53.264;6.592;2023-03-11T06:23:47;12.20;99.60
51996;DHT22;38010;53.264;6.592;2023-03-11T06:26:16;12.20;99.60
51996;DHT22;38010;53.264;6.592;2023-03-11T06:28:43;12.20;99.60
51996;DHT22;38010;53.264;6.592;2023-03-11T06:31:20;12.30;99.60
51996;DHT22;38010;53.264;6.592;2023-03-11T06:33:47;12.20;99.60
51996;DHT22;38010;53.264;6.592;2023-03-11T06:36:14;12.30;99.60
51996;DHT22;38010;53.264;6.592;2023-03-11T06:38:40;12.20;99.50
51996;DHT22;38010;53.264;6.592;2023-03-11T06:41:06;12.30;99.60
51996;DHT22;38010;53.264;6.592;2023-03-11T06:43:33;12.30;99.60
51996;DHT22;38010;53.264;6.592;2023-03-11T06:46:00;12.30;99.60
51996;DHT22;38010;53.264;6.592;2023-03-11T06:48:26;12.30;99.60
51996;DHT22;38010;53.264;6.592;2023-03-11T06:50:59;12.30;99.60
51996;DHT22;38010;53.264;6.592;2023-03-11T06:53:27;12.30;99.50
51996;DHT22;38010;53.264;6.592;2023-03-11T06:56:04;12.30;99.50
51996;DHT22;38010;53.264;6.592;2023-03-11T06:58:32;12.30;99.50
51996;DHT22;38010;53.264;6.592;2023-03-11T07:01:03;12.40;99.50
51996;DHT22;38010;53.264;6.592;2023-03-11T07:03:29;12.40;99.50
51996;DHT22;38010;53.264;6.592;2023-03-11T07:05:56;12.40;99.50
51996;DHT22;38010;53.264;6.592;2023-03-11T07:08:23;12.40;99.50
51996;DHT22;38010;53.264;6.592;2023-03-11T07:11:04;12.40;99.50
51996;DHT22;38010;53.264;6.592;2023-03-11T07:13:30;12.40;99.50
51996;DHT22;38010;53.264;6.592;2023-03-11T07:16:00;12.40;99.50
51996;DHT22;38010;53.264;6.592;2023-03-11T07:18:27;12.40;99.50
51996;DHT22;38010;53.264;6.592;2023-03-11T07:20:52;12.40;99.50
51996;DHT22;38010;53.264;6.592;2023-03-11T07:23:18;12.40;99.50
51996;DHT22;38010;53.264;6.592;2023-03-11T07:25:47;12.50;99.50
51996;DHT22;38010;53.264;6.592;2023-03-11T07:28:13;12.50;99.40
51996;DHT22;38010;53.264;6.592;2023-03-11T07:30:39;12.50;99.40
51996;DHT22;38010;53.264;6.592;2023-03-11T07:33:05;12.50;99.50
51996;DHT22;38010;53.264;6.592;2023-03-11T07:35:31;12.50;99.50
51996;DHT22;38010;53.264;6.592;2023-03-11T07:37:56;12.50;99.50
51996;DHT22;38010;53.264;6.592;2023-03-11T07:40:22;12.50;99.50
51996;DHT22;38010;53.264;6.592;2023-03-11T07:42:48;12.50;99.40
51996;DHT22;38010;53.264;6.592;2023-03-11T07:45:14;12.50;99.40
51996;DHT22;38010;53.264;6.592;2023-03-11T07:47:39;12.50;99.40
51996;DHT22;38010;53.264;6.592;2023-03-11T07:50:05;12.50;99.40
51996;DHT22;38010;53.264;6.592;2023-03-11T07:52:31;12.40;99.40
51996;DHT22;38010;53.264;6.592;2023-03-11T07:54:58;12.50;99.40
51996;DHT22;38010;53.264;6.592;2023-03-11T07:57:23;12.40;99.40
51996;DHT22;38010;53.264;6.592;2023-03-11T07:59:49;12.40;99.40
51996;DHT22;38010;53.264;6.592;2023-03-11T08:02:15;12.40;99.40
51996;DHT22;38010;53.264;6.592;2023-03-11T08:04:40;12.40;99.40
51996;DHT22;38010;53.264;6.592;2023-03-11T08:07:06;12.30;99.40
51996;DHT22;38010;53.264;6.592;2023-03-11T08:09:34;12.30;99.40
51996;DHT22;38010;53.264;6.592;2023-03-11T08:12:00;12.30;99.40
51996;DHT22;38010;53.264;6.592;2023-03-11T08:14:26;12.30;99.40
51996;DHT22;38010;53.264;6.592;2023-03-11T08:16:52;12.20;99.40
51996;DHT22;38010;53.264;6.592;2023-03-11T08:19:18;12.20;99.40
51996;DHT22;38010;53.264;6.592;2023-03-11T08:21:44;12.20;99.40
51996;DHT22;38010;53.264;6.592;2023-03-11T08:24:12;12.20;99.40
51996;DHT22;38010;53.264;6.592;2023-03-11T08:26:38;12.10;99.40
51996;DHT22;38010;53.264;6.592;2023-03-11T08:29:04;12.10;99.40
51996;DHT22;38010;53.264;6.592;2023-03-11T08:31:32;12.10;99.50
51996;DHT22;38010;53.264;6.592;2023-03-11T08:34:01;12.10;99.50
51996;DHT22;38010;53.264;6.592;2023-03-11T08:36:28;12.10;99.50
51996;DHT22;38010;53.264;6.592;2023-03-11T08:38:54;12.10;99.50
51996;DHT22;38010;53.264;6.592;2023-03-11T08:41:20;12.00;99.50
51996;DHT22;38010;53.264;6.592;2023-03-11T08:43:46;12.00;99.50
51996;DHT22;38010;53.264;6.592;2023-03-11T08:48:47;12.00;99.50
51996;DHT22;38010;53.264;6.592;2023-03-11T08:51:13;12.00;99.60
51996;DHT22;38010;53.264;6.592;2023-03-11T08:53:39;12.00;99.60
51996;DHT22;38010;53.264;6.592;2023-03-11T08:56:05;12.00;99.60
51996;DHT22;38010;53.264;6.592;2023-03-11T08:58:31;11.90;99.60
51996;DHT22;38010;53.264;6.592;2023-03-11T09:00:56;11.90;99.60
51996;DHT22;38010;53.264;6.592;2023-03-11T09:03:22;11.90;99.60
51996;DHT22;38010;53.264;6.592;2023-03-11T09:05:54;11.90;99.60
51996;DHT22;38010;53.264;6.592;2023-03-11T09:08:20;11.90;99.60
51996;DHT22;38010;53.264;6.592;2023-03-11T09:10:46;11.90;99.70
51996;DHT22;38010;53.264;6.592;2023-03-11T09:13:11;11.80;99.60
51996;DHT22;38010;53.264;6.592;2023-03-11T09:15:37;11.80;99.70
51996;DHT22;38010;53.264;6.592;2023-03-11T09:18:04;11.80;99.70
51996;DHT22;38010;53.264;6.592;2023-03-11T09:20:30;11.80;99.70
51996;DHT22;38010;53.264;6.592;2023-03-11T09:22:56;11.80;99.70
51996;DHT22;38010;53.264;6.592;2023-03-11T09:25:21;11.80;99.70
51996;DHT22;38010;53.264;6.592;2023-03-11T09:27:47;11.80;99.70
51996;DHT22;38010;53.264;6.592;2023-03-11T09:30:13;11.80;99.70
51996;DHT22;38010;53.264;6.592;2023-03-11T09:32:39;11.80;99.80
51996;DHT22;38010;53.264;6.592;2023-03-11T09:35:04;11.80;99.80
51996;DHT22;38010;53.264;6.592;2023-03-11T09:37:30;11.80;99.80
51996;DHT22;38010;53.264;6.592;2023-03-11T09:39:56;11.70;99.80
51996;DHT22;38010;53.264;6.592;2023-03-11T09:53:14;11.70;99.90
51996;DHT22;38010;53.264;6.592;2023-03-11T09:55:52;11.70;99.90
51996;DHT22;38010;53.264;6.592;2023-03-11T09:58:26;11.70;99.90
51996;DHT22;38010;53.264;6.592;2023-03-11T10:00:55;11.70;99.90
51996;DHT22;38010;53.264;6.592;2023-03-11T10:03:33;11.70;99.90
51996;DHT22;38010;53.264;6.592;2023-03-11T10:16:50;11.70;99.90
51996;DHT22;38010;53.264;6.592;2023-03-11T10:19:36;11.70;99.90
51996;DHT22;38010;53.264;6.592;2023-03-11T10:22:27;11.70;99.90
51996;DHT22;38010;53.264;6.592;2023-03-11T10:27:54;11.70;99.90
51996;DHT22;38010;53.264;6.592;2023-03-11T10:33:01;11.70;99.90
51996;DHT22;38010;53.264;6.592;2023-03-11T10:35:39;11.70;99.90
51996;DHT22;38010;53.264;6.592;2023-03-11T10:38:17;11.70;99.90
51996;DHT22;38010;53.264;6.592;2023-03-11T10:40:46;11.70;99.90
51996;DHT22;38010;53.264;6.592;2023-03-11T10:43:27;11.70;99.90
51996;DHT22;38010;53.264;6.592;2023-03-11T10:45:56;11.70;99.90
51996;DHT22;38010;53.264;6.592;2023-03-11T10:48:24;11.70;99.90
51996;DHT22;38010;53.264;6.592;2023-03-11T10:51:13;11.70;99.90
51996;DHT22;38010;53.264;6.592;2023-03-11T10:53:46;11.70;99.90
51996;DHT22;38010;53.264;6.592;2023-03-11T10:58:52;11.70;99.90
51996;DHT22;38010;53.264;6.592;2023-03-11T11:01:18;11.70;99.90
51996;DHT22;38010;53.264;6.592;2023-03-11T11:03:52;11.70;99.90
51996;DHT22;38010;53.264;6.592;2023-03-11T11:06:29;11.70;99.90
51996;DHT22;38010;53.264;6.592;2023-03-11T11:11:32;11.70;99.90
51996;DHT22;38010;53.264;6.592;2023-03-11T11:14:03;11.70;99.90
51996;DHT22;38010;53.264;6.592;2023-03-11T11:16:29;11.80;99.90
51996;DHT22;38010;53.264;6.592;2023-03-11T11:19:01;11.80;99.90
51996;DHT22;38010;53.264;6.592;2023-03-11T11:21:39;11.80;99.90
51996;DHT22;38010;53.264;6.592;2023-03-11T11:29:31;11.80;99.90
51996;DHT22;38010;53.264;6.592;2023-03-11T11:37:19;11.80;99.90
51996;DHT22;38010;53.264;6.592;2023-03-11T11:39:49;11.80;99.90
51996;DHT22;38010;53.264;6.592;2023-03-11T11:42:18;11.80;99.90
51996;DHT22;38010;53.264;6.592;2023-03-11T11:44:47;11.80;99.90
51996;DHT22;38010;53.264;6.592;2023-03-11T11:47:23;11.80;99.90
51996;DHT22;38010;53.264;6.592;2023-03-11T11:49:56;11.80;99.90
51996;DHT22;38010;53.264;6.592;2023-03-11T11:52:28;11.80;99.90
51996;DHT22;38010;53.264;6.592;2023-03-11T11:55:02;11.80;99.90
51996;DHT22;38010;53.264;6.592;2023-03-11T11:57:29;11.80;99.90
51996;DHT22;38010;53.264;6.592;2023-03-11T11:59:56;11.80;99.90
51996;DHT22;38010;53.264;6.592;2023-03-11T12:02:44;11.80;99.90
51996;DHT22;38010;53.264;6.592;2023-03-11T12:05:31;11.80;99.90
51996;DHT22;38010;53.264;6.592;2023-03-11T12:08:45;11.80;99.90
51996;DHT22;38010;53.264;6.592;2023-03-11T12:11:26;11.80;99.90
51996;DHT22;38010;53.264;6.592;2023-03-11T12:14:18;11.90;99.90
51996;DHT22;38010;53.264;6.592;2023-03-11T12:16:55;11.90;99.90
51996;DHT22;38010;53.264;6.592;2023-03-11T12:25:35;12.00;99.90
51996;DHT22;38010;53.264;6.592;2023-03-11T12:30:53;12.10;99.90
51996;DHT22;38010;53.264;6.592;2023-03-11T12:36:03;12.10;99.90
51996;DHT22;38010;53.264;6.592;2023-03-11T12:38:34;12.10;99.90
51996;DHT22;38010;53.264;6.592;2023-03-11T12:41:45;12.20;99.90
51996;DHT22;38010;53.264;6.592;2023-03-11T12:46:18;12.30;99.90
51996;DHT22;38010;53.264;6.592;2023-03-11T12:48:49;12.30;99.90
51996;DHT22;38010;53.264;6.592;2023-03-11T12:54:20;12.30;99.80
51996;DHT22;38010;53.264;6.592;2023-03-11T12:56:56;12.40;99.80
51996;DHT22;38010;53.264;6.592;2023-03-11T13:05:46;12.50;99.80
51996;DHT22;38010;53.264;6.592;2023-03-11T13:08:20;12.50;99.80
51996;DHT22;38010;53.264;6.592;2023-03-11T13:10:54;12.50;99.70
51996;DHT22;38010;53.264;6.592;2023-03-11T13:13:40;12.50;99.70
51996;DHT22;38010;53.264;6.592;2023-03-11T13:18:40;12.70;99.60
51996;DHT22;38010;53.264;6.592;2023-03-11T13:30:13;12.90;99.40
51996;DHT22;38010;53.264;6.592;2023-03-11T13:35:32;13.00;99.40
51996;DHT22;38010;53.264;6.592;2023-03-11T13:41:01;13.20;99.20
51996;DHT22;38010;53.264;6.592;2023-03-11T13:43:27;13.20;99.30
51996;DHT22;38010;53.264;6.592;2023-03-11T13:46:13;13.30;99.30
51996;DHT22;38010;53.264;6.592;2023-03-11T13:48:46;13.40;99.10
51996;DHT22;38010;53.264;6.592;2023-03-11T13:51:21;13.40;99.00
51996;DHT22;38010;53.264;6.592;2023-03-11T13:54:37;13.40;99.00
51996;DHT22;38010;53.264;6.592;2023-03-11T13:57:04;13.50;98.80
51996;DHT22;38010;53.264;6.592;2023-03-11T13:59:33;13.60;98.90
51996;DHT22;38010;53.264;6.592;2023-03-11T14:02:19;13.70;98.80
51996;DHT22;38010;53.264;6.592;2023-03-11T14:07:24;14.00;98.30
51996;DHT22;38010;53.264;6.592;2023-03-11T14:09:51;14.00;98.40
51996;DHT22;38010;53.264;6.592;2023-03-11T14:12:16;14.10;98.30
51996;DHT22;38010;53.264;6.592;2023-03-11T14:14:50;14.30;98.10
51996;DHT22;38010;53.264;6.592;2023-03-11T14:17:18;14.80;98.00
51996;DHT22;38010;53.264;6.592;2023-03-11T14:20:04;17.20;96.60
51996;DHT22;38010;53.264;6.592;2023-03-11T14:22:32;19.00;94.10
51996;DHT22;38010;53.264;6.592;2023-03-11T14:25:00;20.40;91.90
51996;DHT22;38010;53.264;6.592;2023-03-11T14:27:27;21.30;89.10
51996;DHT22;38010;53.264;6.592;2023-03-11T14:29:53;22.00;84.30
51996;DHT22;38010;53.264;6.592;2023-03-11T14:32:26;22.40;80.40
51996;DHT22;38010;53.264;6.592;2023-03-11T14:34:53;21.40;78.60
51996;DHT22;38010;53.264;6.592;2023-03-11T14:37:45;20.10;78.50
51996;DHT22;38010;53.264;6.592;2023-03-11T14:40:37;19.00;80.00
51996;DHT22;38010;53.264;6.592;2023-03-11T14:43:05;18.00;81.80
51996;DHT22;38010;53.264;6.592;2023-03-11T14:45:34;17.30;83.50
51996;DHT22;38010;53.264;6.592;2023-03-11T14:48:02;16.80;85.40
51996;DHT22;38010;53.264;6.592;2023-03-11T14:50:31;16.40;87.20
51996;DHT22;38010;53.264;6.592;2023-03-11T14:56:02;15.60;90.10
51996;DHT22;38010;53.264;6.592;2023-03-11T14:58:45;15.20;90.70
51996;DHT22;38010;53.264;6.592;2023-03-11T15:01:25;14.90;91.20
51996;DHT22;38010;53.264;6.592;2023-03-11T15:03:59;14.60;91.70
51996;DHT22;38010;53.264;6.592;2023-03-11T15:06:29;14.40;92.20
51996;DHT22;38010;53.264;6.592;2023-03-11T15:13:22;14.00;93.20
51996;DHT22;38010;53.264;6.592;2023-03-11T15:15:58;13.80;93.80
51996;DHT22;38010;53.264;6.592;2023-03-11T15:18:28;13.80;94.20
51996;DHT22;38010;53.264;6.592;2023-03-11T15:21:10;13.70;94.50
51996;DHT22;38010;53.264;6.592;2023-03-11T15:23:37;13.70;94.80
51996;DHT22;38010;53.264;6.592;2023-03-11T15:26:03;13.60;95.00
51996;DHT22;38010;53.264;6.592;2023-03-11T15:28:31;13.60;95.20
51996;DHT22;38010;53.264;6.592;2023-03-11T15:31:26;13.50;95.40
51996;DHT22;38010;53.264;6.592;2023-03-11T15:39:18;13.40;96.00
51996;DHT22;38010;53.264;6.592;2023-03-11T15:41:47;13.50;96.20
51996;DHT22;38010;53.264;6.592;2023-03-11T15:44:29;13.50;96.30
51996;DHT22;38010;53.264;6.592;2023-03-11T15:46:56;13.60;96.40
51996;DHT22;38010;53.264;6.592;2023-03-11T15:49:25;13.70;96.50
51996;DHT22;38010;53.264;6.592;2023-03-11T15:51:51;13.90;96.40
51996;DHT22;38010;53.264;6.592;2023-03-11T15:54:19;13.90;96.40
51996;DHT22;38010;53.264;6.592;2023-03-11T15:56:45;13.90;96.30
51996;DHT22;38010;53.264;6.592;2023-03-11T15:59:14;13.90;96.30
51996;DHT22;38010;53.264;6.592;2023-03-11T16:01:40;13.80;96.40
51996;DHT22;38010;53.264;6.592;2023-03-11T16:04:14;13.80;96.50
51996;DHT22;38010;53.264;6.592;2023-03-11T16:06:41;13.70;96.60
51996;DHT22;38010;53.264;6.592;2023-03-11T16:09:07;13.60;96.70
51996;DHT22;38010;53.264;6.592;2023-03-11T16:11:34;13.50;96.80
51996;DHT22;38010;53.264;6.592;2023-03-11T16:14:00;13.50;97.00
51996;DHT22;38010;53.264;6.592;2023-03-11T16:16:25;13.40;97.10
51996;DHT22;38010;53.264;6.592;2023-03-11T16:18:51;13.40;97.20
51996;DHT22;38010;53.264;6.592;2023-03-11T16:21:19;13.30;97.30
51996;DHT22;38010;53.264;6.592;2023-03-11T16:23:46;13.30;97.40
51996;DHT22;38010;53.264;6.592;2023-03-11T16:26:13;13.30;97.50
51996;DHT22;38010;53.264;6.592;2023-03-11T16:28:39;13.30;97.60
51996;DHT22;38010;53.264;6.592;2023-03-11T16:31:06;13.40;97.60
51996;DHT22;38010;53.264;6.592;2023-03-11T16:33:34;13.40;97.60
51996;DHT22;38010;53.264;6.592;2023-03-11T16:36:00;13.50;97.50
51996;DHT22;38010;53.264;6.592;2023-03-11T16:38:27;13.50;97.50
51996;DHT22;38010;53.264;6.592;2023-03-11T16:40:58;13.50;97.50
51996;DHT22;38010;53.264;6.592;2023-03-11T16:43:25;13.60;97.60
51996;DHT22;38010;53.264;6.592;2023-03-11T16:45:51;13.60;97.60
51996;DHT22;38010;53.264;6.592;2023-03-11T16:48:20;13.70;97.60
51996;DHT22;38010;53.264;6.592;2023-03-11T16:50:46;13.80;97.70
51996;DHT22;38010;53.264;6.592;2023-03-11T16:53:12;13.80;97.60
51996;DHT22;38010;53.264;6.592;2023-03-11T16:55:41;13.90;97.60
51996;DHT22;38010;53.264;6.592;2023-03-11T16:58:07;13.90;97.60
51996;DHT22;38010;53.264;6.592;2023-03-11T17:00:33;14.00;97.90
51996;DHT22;38010;53.264;6.592;2023-03-11T17:02:59;14.00;97.70
51996;DHT22;38010;53.264;6.592;2023-03-11T17:05:24;14.10;97.70
51996;DHT22;38010;53.264;6.592;2023-03-11T17:07:55;14.10;97.70
51996;DHT22;38010;53.264;6.592;2023-03-11T17:10:24;14.20;97.80
51996;DHT22;38010;53.264;6.592;2023-03-11T17:12:50;14.20;97.70
51996;DHT22;38010;53.264;6.592;2023-03-11T17:15:16;14.30;97.70
51996;DHT22;38010;53.264;6.592;2023-03-11T17:17:42;14.30;97.70
51996;DHT22;38010;53.264;6.592;2023-03-11T17:20:08;14.40;97.80
51996;DHT22;38010;53.264;6.592;2023-03-11T17:22:34;14.40;97.80
51996;DHT22;38010;53.264;6.592;2023-03-11T17:25:00;14.40;97.70
51996;DHT22;38010;53.264;6.592;2023-03-11T17:27:26;14.40;97.70
51996;DHT22;38010;53.264;6.592;2023-03-11T17:29:57;14.50;97.80
51996;DHT22;38010;53.264;6.592;2023-03-11T17:32:23;14.50;97.80